Latest Weather Observations for Albany Airport

IDW60801

Issued at 12:05 pm WST Tuesday 2 September 2014 (issued every 30 minutes, with the page automatically refreshed every 10 minutes)

About weather observations | Map of weather stations | Latest weather observations for WA | Other Formats
Station Details ID: 009999 Name: ALBANY AIRPORT Lat: -34.94 Lon: 117.82 Height: 68.4 m
Data from the previous 72 hours. | See also: Recent months at Albany Airport
Date/Time
WST
Temp
°C
App
Temp
°C
Dew
Point
Rel
Hum
%
Delta-T
°C
Wind Press
QNH
hPa
Press
MSL
hPa
Rain
since 9 am
mm
Dir
 
Spd
km/h
Gust
km/h
Spd
kts
Gust
kts
02/12:00pm 15.8 13.2 9.2 65 3.4 NNW 13 17 7 9 1015.4 1015.6 0.0
02/11:30am 15.7 11.7 8.4 62 3.7 NNW 19 28 10 15 1016.4 - 0.0
02/11:00am 14.8 11.2 8.5 66 3.2 WNW 17 20 9 11 1017.1 - 0.0
02/10:30am 14.2 10.8 7.7 65 3.2 NNW 15 22 8 12 1017.1 - 0.0
02/10:00am 12.1 9.5 7.8 75 2.1 N 11 15 6 8 1017.1 - 0.0
02/09:30am 11.8 9.8 7.2 73 2.2 N 7 9 4 5 1017.5 - 0.0
02/09:00am 10.7 8.8 7.4 80 1.6 WSW 7 9 4 5 1017.8 1018.0 0.0
02/08:30am 9.8 7.9 6.6 80 1.5 WNW 6 7 3 4 1017.8 - 0.0
02/08:00am 9.7 8.5 6.5 80 1.5 SSW 2 9 1 5 1017.5 - 0.0
02/07:30am 8.6 6.6 7.1 90 0.7 NE 7 9 4 5 1016.9 - 0.0
02/07:00am 8.5 7.7 6.3 86 1.0 CALM 0 2 0 1 1017.5 - 0.0
02/06:30am 8.4 6.4 6.2 86 1.0 ESE 6 7 3 4 1017.4 - 0.0
02/06:00am 8.3 5.7 5.9 85 1.1 ENE 9 11 5 6 1017.5 1017.7 0.0
02/05:30am 8.5 5.9 5.9 84 1.2 ENE 9 11 5 6 1017.8 - 0.0
02/05:00am 8.3 6.3 6.3 87 0.9 E 6 7 3 4 1018.2 - 0.0
02/04:30am 8.4 5.8 6.0 85 1.1 NE 9 11 5 6 1018.5 - 0.0
02/04:00am 8.9 6.2 5.4 79 1.6 NE 9 11 5 6 1018.7 - 0.0
02/03:30am 9.1 5.6 5.3 77 1.7 NE 13 17 7 9 1019.1 - 0.0
02/03:00am 8.9 5.4 5.4 79 1.6 NE 13 17 7 9 1019.5 1019.7 0.0
02/02:30am 8.9 5.4 5.6 80 1.5 ENE 13 17 7 9 1019.8 - 0.0
02/02:00am 8.4 4.9 5.3 81 1.4 NE 13 15 7 8 1020.6 - 0.0
02/01:30am 8.9 5.7 5.3 78 1.6 NE 11 15 6 8 1020.7 - 0.0
02/01:00am 9.7 6.2 5.3 74 2.0 NE 13 17 7 9 1020.8 - 0.0
02/12:30am 9.8 6.2 5.2 73 2.1 NE 13 19 7 10 1021.0 - 0.0
02/12:00am 9.8 6.0 5.6 75 1.9 NE 15 20 8 11 1021.6 1021.8 0.0
 
Date/Time
WST
Temp
°C
App
Temp
°C
Dew
Point
Rel
Hum
%
Delta-T
°C
Wind Press
QNH
hPa
Press
MSL
hPa
Rain
since 9 am
mm
Dir
 
Spd
km/h
Gust
km/h
Spd
kts
Gust
kts
01/11:30pm 9.9 5.7 5.8 75 1.9 NE 17 20 9 11 1022.1 - 0.0
01/11:00pm 9.2 5.6 5.2 76 1.8 NE 13 19 7 10 1022.1 - 0.0
01/10:30pm 8.2 5.1 5.5 83 1.2 NE 11 13 6 7 1022.8 - 0.0
01/10:00pm 8.3 5.5 5.2 81 1.4 NE 9 13 5 7 1023.0 - 0.0
01/09:30pm 8.6 5.4 5.2 79 1.5 NE 11 13 6 7 1023.0 - 0.0
01/09:00pm 8.8 5.5 4.7 75 1.8 NE 11 13 6 7 1023.1 1023.3 0.0
01/08:30pm 8.1 4.5 5.2 82 1.3 ENE 13 15 7 8 1023.1 - 0.0
01/08:00pm 8.9 6.8 5.6 80 1.5 NE 6 7 3 4 1022.9 - 0.0
01/07:30pm 9.4 7.4 6.4 81 1.4 NNE 6 7 3 4 1023.2 - 0.0
01/07:00pm 10.7 9.6 7.1 78 1.7 NE 2 6 1 3 1022.8 - 0.0
01/06:30pm 11.4 9.0 5.3 66 2.8 NE 7 9 4 5 1022.8 - 0.0
01/06:00pm 12.6 10.2 4.2 56 3.8 NE 6 7 3 4 1022.7 1022.9 0.0
01/05:30pm 14.0 11.5 5.0 54 4.2 NE 7 9 4 5 1022.5 - 0.0
01/05:00pm 14.4 12.1 5.5 55 4.2 NE 7 11 4 6 1022.3 - 0.0
01/04:30pm 13.8 10.5 4.7 54 4.2 NE 11 17 6 9 1022.1 - 0.0
01/04:00pm 15.3 11.2 2.2 41 5.8 NNE 13 19 7 10 1022.0 - 0.0
01/03:30pm 15.6 12.1 1.4 38 6.2 N 9 13 5 7 1021.9 - 0.0
01/03:00pm 15.7 11.4 1.3 37 6.3 N 13 20 7 11 1022.4 1022.6 0.0
01/02:30pm 15.4 11.1 0.8 37 6.3 N 13 20 7 11 1022.5 - 0.0
01/02:00pm 14.8 11.3 1.1 39 5.9 NNE 9 15 5 8 1022.7 - 0.0
01/01:30pm 15.1 11.4 2.5 42 5.6 N 11 19 6 10 1022.9 - 0.0
01/01:00pm 15.3 11.8 3.4 45 5.4 N 11 19 6 10 1023.4 - 0.0
01/12:30pm 14.6 10.3 3.0 45 5.2 N 15 26 8 14 1023.9 - 0.0
01/12:00pm 13.6 8.3 3.0 48 4.7 NNE 20 24 11 13 1024.3 1024.5 0.0
01/11:30am 13.1 8.5 3.5 52 4.3 N 17 20 9 11 1024.6 - 0.0
01/11:00am 12.8 9.1 4.5 57 3.8 NNE 13 20 7 11 1024.7 - 0.0
01/10:30am 12.7 9.8 4.9 59 3.6 N 9 13 5 7 1024.8 - 0.0
01/10:00am 12.4 9.6 5.0 60 3.4 N 9 15 5 8 1024.7 - 0.0
01/09:30am 11.9 9.3 6.1 67 2.7 NNW 9 13 5 7 1025.0 - 0.0
01/09:00am 10.7 8.2 6.4 75 2.0 NNW 9 13 5 7 1025.0 1025.2 2.4
01/08:30am 9.0 5.7 6.6 85 1.1 WNW 13 15 7 8 1024.8 - 2.4
01/08:00am 6.8 4.2 5.9 94 0.4 NW 9 11 5 6 1024.9 - 2.2
01/07:30am 4.4 1.7 3.9 97 0.2 WNW 7 9 4 5 1024.5 - 2.2
01/07:00am 3.4 1.9 2.9 97 0.2 CALM 0 6 0 3 1024.3 - 2.2
01/06:30am 2.3 -0.7 2.3 100 0.0 WSW 7 9 4 5 1023.9 - 2.2
01/06:00am 2.7 1.1 2.7 100 0.0 CALM 0 0 0 0 1023.3 1023.5 2.2
01/05:30am 3.3 0.5 3.1 99 0.1 NNW 7 9 4 5 1023.2 - 2.2
01/05:00am 3.5 0.8 3.5 100 0.0 NNW 7 11 4 6 1023.2 - 2.2
01/04:30am 4.7 3.5 4.5 99 0.1 CALM 0 7 0 4 1023.0 - 2.2
01/04:00am 4.9 1.6 4.7 99 0.1 NW 11 13 6 7 1022.8 - 2.2
01/03:30am 4.9 2.4 4.7 99 0.1 NW 7 9 4 5 1022.7 - 2.2
01/03:00am 5.6 3.2 5.4 99 0.1 NW 7 9 4 5 1022.7 1022.9 2.2
01/02:30am 6.4 4.3 6.0 97 0.2 WNW 6 7 3 4 1022.8 - 2.2
01/02:00am 7.4 6.3 7.0 97 0.2 NNE 2 7 1 4 1022.9 - 2.2
01/01:30am 7.8 6.0 7.2 96 0.3 W 6 9 3 5 1022.8 - 2.2
01/01:00am 7.5 4.7 7.1 97 0.2 NW 11 15 6 8 1022.8 - 2.2
01/12:30am 7.1 4.3 6.9 99 0.1 NW 11 13 6 7 1022.8 - 2.2
01/12:00am 7.2 5.7 6.8 97 0.2 NNW 4 11 2 6 1022.7 1022.9 2.2
 
Date/Time
WST
Temp
°C
App
Temp
°C
Dew
Point
Rel
Hum
%
Delta-T
°C
Wind Press
QNH
hPa
Press
MSL
hPa
Rain
since 9 am
mm
Dir
 
Spd
km/h
Gust
km/h
Spd
kts
Gust
kts
31/11:30pm 7.0 4.9 6.6 97 0.2 N 7 9 4 5 1022.8 - 2.0
31/11:00pm 6.3 4.6 5.9 97 0.2 NNW 4 9 2 5 1023.0 - 2.0
31/10:46pm 6.2 3.6 6.0 99 0.1 NW 9 13 5 7 1023.0 - 2.0
31/10:30pm 6.0 3.3 5.8 99 0.1 NW 9 13 5 7 1022.9 - 2.0
31/10:28pm 5.9 3.3 5.9 100 0.0 NW 9 13 5 7 1022.9 - 2.0
31/10:23pm 6.3 4.2 5.9 97 0.2 NW 6 9 3 5 1022.8 - 2.0
31/10:01pm 6.0 3.7 5.8 99 0.1 N 7 9 4 5 1022.8 - 2.0
31/10:00pm 6.0 3.7 5.8 99 0.1 N 7 9 4 5 1022.8 - 2.0
31/09:30pm 7.3 5.1 6.4 94 0.4 N 7 9 4 5 1022.6 - 2.0
31/09:00pm 8.2 6.4 7.1 93 0.5 NW 6 9 3 5 1022.4 1022.6 2.0
31/08:30pm 7.3 5.7 6.2 93 0.5 NW 4 7 2 4 1022.2 - 2.0
31/08:00pm 7.2 5.2 6.1 93 0.5 NW 6 9 3 5 1022.1 - 2.0
31/07:30pm 9.0 7.1 6.9 87 1.0 S 6 7 3 4 1021.9 - 2.0
31/07:00pm 9.4 7.2 6.4 81 1.4 SSE 7 9 4 5 1021.5 - 2.0
31/06:30pm 9.7 7.3 6.9 83 1.3 S 9 13 5 7 1021.5 - 2.0
31/06:00pm 10.8 7.5 6.5 75 2.0 S 13 20 7 11 1021.1 1021.3 2.0
31/05:30pm 10.8 8.6 7.7 81 1.5 S 9 13 5 7 1020.4 - 2.0
31/05:00pm 12.2 8.2 6.8 69 2.6 S 17 26 9 14 1020.0 - 2.0
31/04:30pm 12.3 8.7 6.9 69 2.6 S 15 24 8 13 1019.7 - 2.0
31/04:00pm 12.2 9.5 7.5 73 2.3 SW 11 17 6 9 1019.4 - 2.0
31/03:30pm 13.8 9.3 6.3 60 3.6 S 19 26 10 14 1019.1 - 2.0
31/03:00pm 13.3 8.7 6.6 64 3.2 SSW 20 32 11 17 1018.8 1019.0 2.0
31/02:30pm 14.0 8.3 6.8 62 3.5 SW 26 41 14 22 1018.2 - 2.0
31/02:00pm 13.5 8.0 5.7 59 3.7 SW 24 35 13 19 1018.1 - 2.0
31/01:30pm 14.1 8.9 7.1 62 3.4 SW 24 33 13 18 1017.8 - 2.0
31/01:00pm 13.6 8.0 5.5 58 3.8 SW 24 39 13 21 1017.8 - 2.0
31/12:30pm 13.9 10.7 8.5 70 2.7 W 15 26 8 14 1018.0 - 2.0
31/12:00pm 11.9 8.5 9.1 83 1.4 W 17 24 9 13 1018.4 1018.6 2.0
31/11:30am 10.7 7.2 8.9 89 0.9 W 17 26 9 14 1018.7 - 1.6
31/11:00am 10.8 7.6 8.6 86 1.1 W 15 20 8 11 1018.4 - 1.2
31/10:30am 12.4 7.1 8.4 76 2.0 W 26 43 14 23 1018.5 - 0.0
31/10:00am 13.1 9.4 7.8 70 2.6 WNW 17 24 9 13 1018.4 - 0.0
31/09:30am 13.5 8.2 6.6 63 3.3 WSW 24 30 13 16 1018.7 - 0.0
31/09:00am 11.8 7.4 7.2 73 2.2 W 20 28 11 15 1018.4 1018.6 0.2
31/08:30am 11.6 6.5 7.7 77 1.9 WNW 24 30 13 16 1018.1 - 0.2
31/08:00am 10.5 6.8 7.8 83 1.3 WNW 17 22 9 12 1018.0 - 0.2
31/07:30am 9.2 4.8 7.3 88 0.9 WNW 20 26 11 14 1017.8 - 0.2
31/07:00am 7.7 3.7 6.6 93 0.5 NW 17 24 9 13 1017.6 - 0.2
31/06:30am 7.1 3.0 6.4 95 0.3 NW 17 20 9 11 1017.3 - 0.2
31/06:00am 7.2 3.5 6.5 95 0.3 NW 15 20 8 11 1017.1 1017.3 0.2
31/05:30am 7.2 3.5 6.5 95 0.3 WNW 15 19 8 10 1016.9 - 0.2
31/05:00am 7.2 3.5 6.3 94 0.4 NW 15 17 8 9 1016.8 - 0.2
31/04:30am 8.1 4.1 6.8 91 0.6 WNW 17 19 9 10 1016.7 - 0.2
31/04:00am 8.8 5.3 7.1 89 0.8 NW 15 19 8 10 1016.9 - 0.2
31/03:30am 8.7 5.5 7.0 89 0.8 WNW 13 17 7 9 1016.7 - 0.2
31/03:00am 8.5 5.3 7.0 90 0.7 NW 13 15 7 8 1016.6 1016.8 0.2
31/02:30am 8.5 5.0 7.0 90 0.7 WNW 15 20 8 11 1016.4 - 0.2
31/02:00am 7.6 4.7 6.5 93 0.5 WNW 11 11 6 6 1016.5 - 0.2
31/01:30am 7.9 5.0 6.6 91 0.6 NW 11 13 6 7 1016.6 - 0.2
31/01:00am 7.4 4.5 6.5 94 0.4 NW 11 13 6 7 1016.6 - 0.2
31/12:30am 7.7 4.4 6.4 91 0.6 NW 13 15 7 8 1016.5 - 0.2
31/12:00am 7.3 4.0 6.2 93 0.5 NW 13 17 7 9 1016.8 1017.0 0.2
 
Date/Time
WST
Temp
°C
App
Temp
°C
Dew
Point
Rel
Hum
%
Delta-T
°C
Wind Press
QNH
hPa
Press
MSL
hPa
Rain
since 9 am
mm
Dir
 
Spd
km/h
Gust
km/h
Spd
kts
Gust
kts
30/11:30pm 7.2 3.9 6.3 94 0.4 NW 13 15 7 8 1016.6 - 0.2
30/11:00pm 7.4 4.5 6.5 94 0.4 NW 11 13 6 7 1016.8 - 0.2
30/10:30pm 7.4 4.1 6.3 93 0.5 NW 13 13 7 7 1017.1 - 0.2
30/10:00pm 8.5 5.7 6.8 89 0.8 WNW 11 13 6 7 1017.4 - 0.2
30/09:30pm 9.1 6.3 7.0 87 1.0 WNW 11 13 6 7 1017.1 - 0.2
30/09:00pm 8.9 6.2 7.4 90 0.7 WNW 11 11 6 6 1017.2 1017.4 0.2
30/08:30pm 9.2 7.0 7.7 90 0.7 NW 9 9 5 5 1017.1 - 0.2
30/08:00pm 9.7 7.1 7.8 88 0.9 NW 11 11 6 6 1016.9 - 0.2
30/07:30pm 10.4 8.3 8.4 87 1.0 WNW 9 11 5 6 1017.0 - 0.2
30/07:00pm 11.2 9.1 8.4 83 1.4 WNW 9 9 5 5 1016.7 - 0.2
30/06:30pm 11.1 9.0 8.2 82 1.4 NW 9 9 5 5 1016.6 - 0.2
30/06:00pm 11.4 9.4 8.6 83 1.4 WNW 9 9 5 5 1016.3 1016.5 0.2
30/05:30pm 12.3 10.0 7.4 72 2.4 WSW 9 13 5 7 1016.3 - 0.2
30/05:00pm 12.7 8.7 6.6 66 2.9 WSW 17 28 9 15 1016.1 - 0.2
30/04:30pm 13.4 10.4 7.5 67 2.9 SW 13 20 7 11 1015.6 - 0.2
30/04:00pm 13.3 10.0 8.1 71 2.6 SW 15 22 8 12 1015.4 - 0.2
30/03:30pm 14.0 9.5 7.0 62 3.4 SW 20 30 11 16 1015.1 - 0.2
30/03:00pm 13.6 11.4 8.0 69 2.8 W 9 11 5 6 1014.8 1015.0 0.2
30/02:30pm 14.7 10.3 6.4 57 4.0 W 19 26 10 14 1014.6 - 0.2
30/02:00pm 13.8 9.9 7.3 65 3.2 W 17 24 9 13 1014.6 - 0.2
30/01:30pm 14.0 9.0 8.2 68 2.9 WSW 24 33 13 18 1014.5 - 0.2
30/01:00pm 15.2 10.6 6.6 56 4.2 WSW 20 30 11 16 1014.4 - 0.2
30/12:30pm 15.1 10.8 7.0 58 4.0 W 19 28 10 15 1014.5 - 0.2

Other Formats:

Comma delimited format used in spreadsheet applications
http://www.bom.gov.au/fwo/IDW60801/IDW60801.94802.axf

JavaScript Object Notation format (JSON) in row-major order
http://www.bom.gov.au/fwo/IDW60801/IDW60801.94802.json